createdAt,value
2018-04-22T00:00:49.964Z,101854.27
2018-04-22T00:01:54.370Z,101849.84
2018-04-22T00:03:01.568Z,101842.31
2018-04-22T00:04:07.729Z,101848.47
2018-04-22T00:05:11.904Z,101839.14
2018-04-22T00:06:17.449Z,101832.95
2018-04-22T00:07:32.862Z,101833.81
2018-04-22T00:08:37.017Z,101835.98
2018-04-22T00:09:41.840Z,101830.70
2018-04-22T00:10:47.487Z,101826.27
2018-04-22T00:12:05.017Z,101832.48
2018-04-22T00:13:09.263Z,101819.05
2018-04-22T00:14:14.276Z,101821.18
2018-04-22T00:15:29.710Z,101822.95
2018-04-22T00:16:34.678Z,101819.91
2018-04-22T00:17:39.585Z,101809.32
2018-04-22T00:18:43.722Z,101815.98
2018-04-22T00:19:48.110Z,101817.83
2018-04-22T00:20:55.275Z,101825.80
2018-04-22T00:21:59.715Z,101820.41
2018-04-22T00:23:03.815Z,101822.58
2018-04-22T00:24:12.293Z,101821.70
2018-04-22T00:25:17.144Z,101819.09
2018-04-22T00:26:25.532Z,101818.66
2018-04-22T00:27:32.557Z,101820.94
2018-04-22T00:28:39.736Z,101825.81
2018-04-22T00:29:46.428Z,101820.47
2018-04-22T00:30:51.971Z,101820.88
2018-04-22T00:32:03.246Z,101818.23
2018-04-22T00:33:07.486Z,101816.94
2018-04-22T00:34:13.335Z,101813.37
2018-04-22T00:35:17.584Z,101812.53
2018-04-22T00:36:21.750Z,101813.84
2018-04-22T00:37:26.912Z,101817.81
2018-04-22T00:38:31.050Z,101805.36
2018-04-22T00:39:35.312Z,101810.25
2018-04-22T00:40:40.262Z,101808.41
2018-04-22T00:42:02.958Z,101801.80
2018-04-22T00:43:20.457Z,101809.83
2018-04-22T00:44:36.444Z,101811.62
2018-04-22T00:45:43.514Z,101805.44
2018-04-22T00:46:50.651Z,101804.97
2018-04-22T00:47:56.151Z,101805.83
2018-04-22T00:49:01.565Z,101807.64
2018-04-22T00:50:10.162Z,101804.98
2018-04-22T00:51:14.454Z,101801.44
2018-04-22T00:52:18.645Z,101801.45
2018-04-22T00:53:25.224Z,101801.45
2018-04-22T00:54:40.502Z,101802.80
2018-04-22T00:55:59.044Z,101793.89
2018-04-22T00:57:04.889Z,101798.78
2018-04-22T00:58:12.717Z,101799.67
2018-04-22T00:59:16.828Z,101798.80
2018-04-22T01:00:21.387Z,101794.36
2018-04-22T01:01:26.942Z,101794.80
2018-04-22T01:02:32.120Z,101791.68
2018-04-22T01:03:40.804Z,101789.37
2018-04-22T01:04:45.056Z,101783.57
2018-04-22T01:05:49.149Z,101789.73
2018-04-22T01:06:54.640Z,101778.95
2018-04-22T01:08:16.020Z,101781.59
2018-04-22T01:09:20.150Z,101780.30
2018-04-22T01:10:24.625Z,101785.63
2018-04-22T01:11:29.388Z,101782.16
2018-04-22T01:12:33.517Z,101774.66
2018-04-22T01:13:39.078Z,101771.57
2018-04-22T01:14:43.202Z,101784.95
2018-04-22T01:15:49.790Z,101781.93
2018-04-22T01:16:58.061Z,101782.84
2018-04-22T01:18:04.724Z,101785.11
2018-04-22T01:19:12.556Z,101781.11
2018-04-22T01:20:17.165Z,101782.43
2018-04-22T01:21:22.446Z,101779.33
2018-04-22T01:22:28.644Z,101779.36
2018-04-22T01:23:33.705Z,101778.90
2018-04-22T01:24:39.817Z,101778.45
2018-04-22T01:25:45.883Z,101776.66
2018-04-22T01:26:51.573Z,101780.23
2018-04-22T01:27:58.101Z,101779.79
2018-04-22T01:29:02.215Z,101774.00
2018-04-22T01:30:08.741Z,101772.66
2018-04-22T01:31:13.364Z,101776.22
2018-04-22T01:32:20.487Z,101771.79
2018-04-22T01:33:26.989Z,101767.36
2018-04-22T01:34:36.077Z,101766.88
2018-04-22T01:35:43.229Z,101758.86
2018-04-22T01:36:47.598Z,101758.38
2018-04-22T01:37:55.910Z,101758.33
2018-04-22T01:39:09.805Z,101752.52
2018-04-22T01:40:18.564Z,101752.48
2018-04-22T01:41:27.084Z,101750.25
2018-04-22T01:42:33.894Z,101752.47
2018-04-22T01:43:41.069Z,101746.20
2018-04-22T01:44:49.364Z,101748.45
2018-04-22T01:45:54.845Z,101748.47
2018-04-22T01:46:59.549Z,101744.92
2018-04-22T01:48:04.251Z,101752.91
2018-04-22T01:49:08.851Z,101747.13
2018-04-22T01:50:14.211Z,101747.62
2018-04-22T01:51:18.337Z,101744.98
2018-04-22T01:52:22.555Z,101740.55
2018-04-22T01:53:28.374Z,101742.35
2018-04-22T01:54:32.559Z,101740.62
2018-04-22T01:55:40.046Z,101745.06
2018-04-22T01:56:47.289Z,101742.81
2018-04-22T01:57:56.593Z,101743.28
2018-04-22T01:59:05.627Z,101742.39
2018-04-22T02:00:15.670Z,101741.58
2018-04-22T02:01:24.460Z,101745.16
2018-04-22T02:02:29.419Z,101744.31
2018-04-22T02:03:38.219Z,101742.97
2018-04-22T02:04:50.809Z,101741.66
2018-04-22T02:05:55.880Z,101739.88
2018-04-22T02:06:59.991Z,101746.08
2018-04-22T02:08:05.130Z,101741.64
2018-04-22T02:09:12.008Z,101739.84
2018-04-22T02:10:16.820Z,101736.69
2018-04-22T02:11:30.579Z,101738.44
2018-04-22T02:12:40.291Z,101731.77
2018-04-22T02:13:50.745Z,101735.77
2018-04-22T02:14:56.551Z,101733.12
2018-04-22T02:16:02.288Z,101724.71
2018-04-22T02:17:08.507Z,101718.98
2018-04-22T02:18:12.663Z,101719.88
2018-04-22T02:19:17.935Z,101719.87
2018-04-22T02:20:25.285Z,101719.44
2018-04-22T02:22:48.255Z,101712.30
2018-04-22T02:23:56.711Z,101704.77
2018-04-22T02:25:00.910Z,101705.25
2018-04-22T02:26:08.834Z,101699.94
2018-04-22T02:27:15.588Z,101698.61
2018-04-22T02:28:21.845Z,101695.55
2018-04-22T02:29:26.561Z,101698.64
2018-04-22T02:30:31.818Z,101697.78
2018-04-22T02:31:38.434Z,101696.88
2018-04-22T02:32:44.498Z,101700.01
2018-04-22T02:33:49.937Z,101698.23
2018-04-22T02:34:55.117Z,101702.20
2018-04-22T02:37:03.352Z,101705.33
2018-04-22T02:38:08.701Z,101700.01
2018-04-22T02:39:15.469Z,101703.97
2018-04-22T02:40:21.737Z,101700.02
2018-04-22T02:41:25.900Z,101703.09
2018-04-22T02:42:30.063Z,101697.33
2018-04-22T02:43:41.135Z,101693.80
2018-04-22T02:44:46.128Z,101696.00
2018-04-22T02:45:50.928Z,101695.55
2018-04-22T02:46:57.040Z,101694.66
2018-04-22T02:48:07.720Z,101691.13
2018-04-22T02:49:16.885Z,101694.22
2018-04-22T02:50:21.005Z,101702.20
2018-04-22T02:51:25.946Z,101697.78
2018-04-22T02:52:32.883Z,101692.45
2018-04-22T02:53:38.401Z,101688.03
2018-04-22T02:54:43.054Z,101699.55
2018-04-22T02:55:49.448Z,101689.37
2018-04-22T02:56:54.457Z,101697.77
2018-04-22T02:57:59.446Z,101695.13
2018-04-22T02:59:04.479Z,101699.10
2018-04-22T03:00:11.069Z,101695.11
2018-04-22T03:01:19.319Z,101695.13
2018-04-22T03:02:27.267Z,101688.48
2018-04-22T03:03:35.739Z,101693.36
2018-04-22T03:04:42.761Z,101698.69
2018-04-22T03:05:48.369Z,101691.14
2018-04-22T03:06:53.077Z,101690.23
2018-04-22T03:07:58.173Z,101688.89
2018-04-22T03:09:04.603Z,101686.69
2018-04-22T03:10:10.792Z,101685.80
2018-04-22T03:11:18.458Z,101676.05
2018-04-22T03:12:23.639Z,101684.47
2018-04-22T03:13:35.840Z,101685.78
2018-04-22T03:14:40.826Z,101681.81
2018-04-22T03:15:45.561Z,101671.15
2018-04-22T03:16:50.878Z,101676.93
2018-04-22T03:17:55.130Z,101668.97
2018-04-22T03:18:59.522Z,101676.47
2018-04-22T03:20:04.977Z,101680.47
2018-04-22T03:21:11.016Z,101672.09
2018-04-22T03:22:16.628Z,101676.06
2018-04-22T03:23:21.794Z,101676.06
2018-04-22T03:24:26.756Z,101668.98
2018-04-22T03:25:33.859Z,101670.30
2018-04-22T03:26:39.738Z,101670.77
2018-04-22T03:27:44.846Z,101667.65
2018-04-22T03:28:51.014Z,101675.19
2018-04-22T03:29:58.002Z,101668.09
2018-04-22T03:31:05.063Z,101671.20
2018-04-22T03:32:10.485Z,101676.05
2018-04-22T03:33:15.936Z,101670.30
2018-04-22T03:34:22.185Z,101668.11
2018-04-22T03:35:27.246Z,101668.53
2018-04-22T03:36:33.488Z,101666.33
2018-04-22T03:37:39.392Z,101664.98
2018-04-22T03:38:44.716Z,101663.67
2018-04-22T03:39:49.068Z,101663.22
2018-04-22T03:40:53.706Z,101659.23
2018-04-22T03:41:58.735Z,101657.44
2018-04-22T03:43:02.873Z,101657.91
2018-04-22T03:44:07.893Z,101662.33
2018-04-22T03:45:15.756Z,101653.90
2018-04-22T03:46:20.680Z,101660.98
2018-04-22T03:47:26.321Z,101657.89
2018-04-22T03:48:30.979Z,101650.83
2018-04-22T03:49:38.144Z,101659.22
2018-04-22T03:50:52.187Z,101653.02
2018-04-22T03:51:57.826Z,101649.94
2018-04-22T03:53:02.275Z,101651.28
2018-04-22T03:54:08.378Z,101643.30
2018-04-22T03:55:13.483Z,101646.38
2018-04-22T03:56:22.585Z,101640.61
2018-04-22T03:57:28.639Z,101642.39
2018-04-22T03:58:33.340Z,101640.16
2018-04-22T03:59:38.369Z,101645.47
2018-04-22T04:00:44.576Z,101647.70
2018-04-22T04:01:53.089Z,101639.28
2018-04-22T04:02:59.853Z,101639.72
2018-04-22T04:04:07.593Z,101641.03
2018-04-22T04:05:18.221Z,101637.95
2018-04-22T04:06:22.524Z,101642.80
2018-04-22T04:07:27.293Z,101640.16
2018-04-22T04:08:31.438Z,101632.15
2018-04-22T04:09:36.048Z,101629.91
2018-04-22T04:10:41.302Z,101631.27
2018-04-22T04:11:47.442Z,101628.60
2018-04-22T04:12:53.260Z,101627.28
2018-04-22T04:13:59.118Z,101617.95
2018-04-22T04:15:06.121Z,101617.95
2018-04-22T04:16:11.640Z,101618.80
2018-04-22T04:17:15.914Z,101617.05
2018-04-22T04:18:28.726Z,101617.07
2018-04-22T04:21:47.152Z,101612.61
2018-04-22T04:22:51.453Z,101608.60
2018-04-22T04:24:05.476Z,101608.52
2018-04-22T04:27:32.613Z,101606.28
2018-04-22T04:28:37.940Z,101600.45
2018-04-22T04:29:42.948Z,101602.69
2018-04-22T04:30:49.337Z,101607.98
2018-04-22T04:31:55.199Z,101607.07
2018-04-22T04:33:01.291Z,101598.63
2018-04-22T04:34:06.048Z,101604.84
2018-04-22T04:35:13.500Z,101597.33
2018-04-22T04:36:20.360Z,101601.36
2018-04-22T04:37:26.308Z,101591.57
2018-04-22T04:38:31.015Z,101596.89
2018-04-22T04:39:35.635Z,101591.58
2018-04-22T04:40:39.774Z,101593.33
2018-04-22T04:41:48.731Z,101595.56
2018-04-22T04:42:53.982Z,101595.55
2018-04-22T04:43:58.639Z,101590.64
2018-04-22T04:45:05.546Z,101590.16
2018-04-22T04:46:10.426Z,101597.23
2018-04-22T04:47:17.412Z,101587.91
2018-04-22T04:48:23.372Z,101591.35
2018-04-22T04:49:28.464Z,101591.30
2018-04-22T04:50:34.807Z,101585.44
2018-04-22T04:51:41.037Z,101582.25
2018-04-22T04:52:47.516Z,101586.17
2018-04-22T04:53:52.467Z,101584.91
2018-04-22T04:54:58.422Z,101577.72
2018-04-22T04:56:03.894Z,101576.72
2018-04-22T04:57:08.182Z,101576.28
2018-04-22T04:58:14.822Z,101578.09
2018-04-22T04:59:20.476Z,101580.89
2018-04-22T05:00:26.450Z,101583.51
2018-04-22T05:01:33.907Z,101578.55
2018-04-22T05:02:39.285Z,101582.45
2018-04-22T05:03:49.220Z,101584.56
2018-04-22T05:04:55.764Z,101579.90
2018-04-22T05:06:02.468Z,101581.60
2018-04-22T05:07:09.073Z,101585.50
2018-04-22T05:08:15.084Z,101583.58
2018-04-22T05:09:20.268Z,101578.56
2018-04-22T05:10:24.685Z,101578.56
2018-04-22T05:11:29.289Z,101579.29
2018-04-22T05:12:34.352Z,101572.44
2018-04-22T05:13:39.044Z,101576.37
2018-04-22T05:14:43.611Z,101575.42
2018-04-22T05:15:50.680Z,101577.53
2018-04-22T05:16:58.478Z,101573.45
2018-04-22T05:18:04.049Z,101577.69
2018-04-22T05:19:09.226Z,101578.84
2018-04-22T05:20:13.997Z,101577.52
2018-04-22T05:21:18.720Z,101576.57
2018-04-22T05:22:23.837Z,101577.71
2018-04-22T05:23:30.020Z,101572.10
2018-04-22T05:24:35.085Z,101562.11
2018-04-22T05:25:40.045Z,101558.75
2018-04-22T05:26:45.266Z,101566.78
2018-04-22T05:27:50.874Z,101562.87
2018-04-22T05:28:55.054Z,101558.45
2018-04-22T05:30:01.227Z,101566.70
2018-04-22T05:31:08.903Z,101557.99
2018-04-22T05:32:15.233Z,101565.41
2018-04-22T05:33:20.015Z,101563.78
2018-04-22T05:34:26.483Z,101558.92
2018-04-22T05:35:30.642Z,101558.56
2018-04-22T05:36:36.421Z,101561.05
2018-04-22T05:37:41.031Z,101561.39
2018-04-22T05:38:47.464Z,101563.70
2018-04-22T05:39:53.470Z,101558.55
2018-04-22T05:41:09.700Z,101565.86
2018-04-22T05:42:16.036Z,101563.98
2018-04-22T05:43:21.166Z,101558.55
2018-04-22T05:44:32.045Z,101558.70
2018-04-22T05:45:36.920Z,101554.80
2018-04-22T05:46:41.593Z,101558.06
2018-04-22T05:47:45.760Z,101558.13
2018-04-22T05:48:51.423Z,101551.98
2018-04-22T05:49:55.983Z,101552.24
2018-04-22T05:51:00.137Z,101555.05
2018-04-22T05:52:05.185Z,101549.68
2018-04-22T05:53:11.026Z,101548.52
2018-04-22T05:54:16.756Z,101549.43
2018-04-22T05:55:21.910Z,101551.20
2018-04-22T05:56:27.103Z,101554.58
2018-04-22T05:57:32.205Z,101551.05
2018-04-22T05:58:36.404Z,101552.05
2018-04-22T05:59:42.612Z,101553.16
2018-04-22T06:00:47.240Z,101552.47
2018-04-22T06:01:52.798Z,101547.20
2018-04-22T06:02:58.274Z,101542.03
2018-04-22T06:04:03.981Z,101541.05
2018-04-22T06:05:09.579Z,101539.85
2018-04-22T06:06:14.300Z,101551.17
2018-04-22T06:07:19.137Z,101540.78
2018-04-22T06:08:24.192Z,101546.58
2018-04-22T06:09:30.962Z,101540.62
2018-04-22T06:10:35.651Z,101543.34
2018-04-22T06:11:40.320Z,101537.18
2018-04-22T06:12:44.450Z,101536.95
2018-04-22T06:13:51.736Z,101529.34
2018-04-22T06:14:55.899Z,101533.02
2018-04-22T06:16:00.599Z,101527.91
2018-04-22T06:17:04.805Z,101532.61
2018-04-22T06:18:10.228Z,101530.03
2018-04-22T06:19:15.790Z,101527.50
2018-04-22T06:20:21.232Z,101526.13
2018-04-22T06:21:26.047Z,101518.69
2018-04-22T06:22:30.177Z,101518.47
2018-04-22T06:23:34.298Z,101511.39
2018-04-22T06:24:40.153Z,101513.73
2018-04-22T06:25:45.062Z,101504.76
2018-04-22T06:26:51.970Z,101508.08
2018-04-22T06:27:58.319Z,101510.48
2018-04-22T06:29:03.401Z,101506.61
2018-04-22T06:30:08.940Z,101502.00
2018-04-22T06:31:13.545Z,101506.52
2018-04-22T06:32:19.596Z,101509.14
2018-04-22T06:33:24.193Z,101506.07
2018-04-22T06:34:29.046Z,101506.43
2018-04-22T06:35:34.078Z,101505.33
2018-04-22T06:36:38.967Z,101499.58
2018-04-22T06:37:43.571Z,101501.13
2018-04-22T06:38:49.983Z,101502.42
2018-04-22T06:39:55.517Z,101496.06
2018-04-22T06:40:59.741Z,101496.68
2018-04-22T06:42:04.418Z,101494.98
2018-04-22T06:43:08.620Z,101492.14
2018-04-22T06:44:12.808Z,101489.52
2018-04-22T06:45:17.710Z,101497.81
2018-04-22T06:46:22.434Z,101499.84
2018-04-22T06:47:26.621Z,101496.09
2018-04-22T06:48:30.746Z,101498.25
2018-04-22T06:49:36.313Z,101508.81
2018-04-22T06:50:40.939Z,101501.74
2018-04-22T06:51:45.966Z,101506.02
2018-04-22T06:52:51.066Z,101501.14
2018-04-22T06:53:55.327Z,101506.37
2018-04-22T06:54:59.464Z,101498.46
2018-04-22T06:56:05.813Z,101508.02
2018-04-22T06:57:10.476Z,101501.79
2018-04-22T06:58:14.919Z,101502.73
2018-04-22T06:59:19.815Z,101495.30
2018-04-22T07:00:24.223Z,101499.16
2018-04-22T07:01:28.917Z,101497.38
2018-04-22T07:02:33.130Z,101497.70
2018-04-22T07:03:37.857Z,101495.05
2018-04-22T07:04:42.357Z,101495.50
2018-04-22T07:05:48.700Z,101498.34
2018-04-22T07:06:55.628Z,101490.70
2018-04-22T07:08:00.842Z,101489.82
2018-04-22T07:09:06.678Z,101479.64
2018-04-22T07:10:10.813Z,101479.77
2018-04-22T07:11:15.286Z,101475.23
2018-04-22T07:12:19.424Z,101479.23
2018-04-22T07:13:23.546Z,101474.26
2018-04-22T07:14:27.758Z,101471.05
2018-04-22T07:15:32.338Z,101471.04
2018-04-22T07:16:36.659Z,101471.37
2018-04-22T07:17:41.969Z,101475.55
2018-04-22T07:18:46.679Z,101475.95
2018-04-22T07:19:51.232Z,101474.04
2018-04-22T07:20:56.198Z,101472.38
2018-04-22T07:22:00.337Z,101474.47
2018-04-22T07:23:06.357Z,101472.19
2018-04-22T07:24:11.350Z,101465.56
2018-04-22T07:25:16.754Z,101460.52
2018-04-22T07:26:20.881Z,101460.39
2018-04-22T07:27:27.117Z,101461.30
2018-04-22T07:28:32.570Z,101462.52
2018-04-22T07:29:41.331Z,101461.64
2018-04-22T07:30:46.803Z,101457.63
2018-04-22T07:31:57.589Z,101451.34
2018-04-22T07:33:03.368Z,101445.55
2018-04-22T07:34:07.572Z,101449.96
2018-04-22T07:35:12.175Z,101439.67
2018-04-22T07:36:17.386Z,101437.05
2018-04-22T07:37:23.155Z,101435.67
2018-04-22T07:38:27.351Z,101431.41
2018-04-22T07:39:33.544Z,101426.58
2018-04-22T07:40:37.790Z,101431.55
2018-04-22T07:41:42.041Z,101431.56
2018-04-22T07:42:46.155Z,101426.56
2018-04-22T07:43:51.978Z,101421.55
2018-04-22T07:44:56.146Z,101414.36
2018-04-22T07:46:00.892Z,101414.07
2018-04-22T07:47:06.115Z,101409.84
2018-04-22T07:48:10.859Z,101414.64
2018-04-22T07:49:15.356Z,101415.98
2018-04-22T07:50:24.355Z,101409.27
2018-04-22T07:51:34.474Z,101417.16
2018-04-22T07:52:41.527Z,101413.34
2018-04-22T07:53:46.240Z,101419.00
2018-04-22T07:54:51.597Z,101408.88
2018-04-22T07:55:57.981Z,101405.64
2018-04-22T07:57:02.246Z,101410.09
2018-04-22T07:58:07.500Z,101409.52
2018-04-22T07:59:12.173Z,101410.30
2018-04-22T08:00:20.675Z,101411.36
2018-04-22T08:01:25.924Z,101412.09
2018-04-22T08:02:30.497Z,101409.39
2018-04-22T08:03:34.675Z,101402.98
2018-04-22T08:04:38.892Z,101406.84
2018-04-22T08:05:44.032Z,101404.09
2018-04-22T08:06:49.300Z,101411.12
2018-04-22T08:07:54.243Z,101406.75
2018-04-22T08:09:00.363Z,101410.41
2018-04-22T08:10:06.296Z,101407.41
2018-04-22T08:11:11.335Z,101403.06
2018-04-22T08:12:15.643Z,101400.03
2018-04-22T08:13:20.713Z,101401.67
2018-04-22T08:14:25.670Z,101401.53
2018-04-22T08:15:31.379Z,101398.39
2018-04-22T08:16:37.399Z,101400.81
2018-04-22T08:17:42.561Z,101400.11
2018-04-22T08:18:47.258Z,101396.67
2018-04-22T08:19:52.678Z,101407.93
2018-04-22T08:20:58.825Z,101405.90
2018-04-22T08:22:02.965Z,101410.45
2018-04-22T08:23:08.012Z,101410.34
2018-04-22T08:24:12.204Z,101407.63
2018-04-22T08:25:16.353Z,101403.82
2018-04-22T08:26:21.410Z,101401.12
2018-04-22T08:27:27.880Z,101394.28
2018-04-22T08:28:33.466Z,101389.07
2018-04-22T08:29:37.781Z,101398.80
2018-04-22T08:30:43.363Z,101390.55
2018-04-22T08:31:49.403Z,101389.21
2018-04-22T08:32:59.532Z,101388.39
2018-04-22T08:34:04.429Z,101387.83
2018-04-22T08:35:08.590Z,101385.83
2018-04-22T08:36:34.653Z,101389.50
2018-04-22T08:37:38.828Z,101390.16
2018-04-22T08:38:44.138Z,101382.94
2018-04-22T08:39:49.410Z,101389.96
2018-04-22T08:40:54.462Z,101393.30
2018-04-22T08:41:58.603Z,101385.87
2018-04-22T08:43:03.717Z,101382.08
2018-04-22T08:44:07.908Z,101380.43
2018-04-22T08:45:14.823Z,101378.84
2018-04-22T08:46:20.412Z,101377.30
2018-04-22T08:47:24.655Z,101379.97
2018-04-22T08:48:30.022Z,101373.62
2018-04-22T08:49:34.426Z,101362.73
2018-04-22T08:50:39.160Z,101363.25
2018-04-22T08:51:43.902Z,101359.16
2018-04-22T08:52:48.479Z,101358.36
2018-04-22T08:53:53.909Z,101356.48
2018-04-22T08:54:58.066Z,101360.89
2018-04-22T08:56:02.821Z,101353.36
2018-04-22T08:57:07.108Z,101356.55
2018-04-22T08:58:11.899Z,101359.58
2018-04-22T08:59:16.912Z,101362.54
2018-04-22T09:00:22.477Z,101370.52
2018-04-22T09:01:27.524Z,101368.33
2018-04-22T09:02:31.742Z,101369.00
2018-04-22T09:03:35.945Z,101373.08
2018-04-22T09:04:40.644Z,101363.11
2018-04-22T09:05:45.779Z,101369.36
2018-04-22T09:06:50.852Z,101368.27
2018-04-22T09:07:56.156Z,101371.80
2018-04-22T09:09:00.899Z,101368.70
2018-04-22T09:10:05.066Z,101362.57
2018-04-22T09:11:11.104Z,101364.00
2018-04-22T09:12:15.420Z,101351.61
2018-04-22T09:13:21.640Z,101341.80
2018-04-22T09:14:27.374Z,101342.70
2018-04-22T09:15:34.331Z,101340.30
2018-04-22T09:16:38.977Z,101339.31
2018-04-22T09:17:44.031Z,101329.05
2018-04-22T09:18:48.987Z,101327.77
2018-04-22T09:19:53.218Z,101324.06
2018-04-22T09:21:00.289Z,101319.91
2018-04-22T09:22:04.877Z,101320.02
2018-04-22T09:23:09.218Z,101327.50
2018-04-22T09:24:14.566Z,101327.52
2018-04-22T09:25:18.745Z,101333.92
2018-04-22T09:26:22.921Z,101327.67
2018-04-22T09:27:28.378Z,101324.84
2018-04-22T09:28:32.631Z,101332.61
2018-04-22T09:29:37.087Z,101325.44
2018-04-22T09:30:42.605Z,101326.17
2018-04-22T09:31:46.771Z,101323.05
2018-04-22T09:32:51.839Z,101321.26
2018-04-22T09:33:57.531Z,101319.42
2018-04-22T09:35:01.921Z,101296.83
2018-04-22T09:36:06.921Z,101306.45
2018-04-22T09:37:11.100Z,101307.63
2018-04-22T09:38:15.393Z,101306.61
2018-04-22T09:39:20.046Z,101306.15
2018-04-22T09:40:24.168Z,101301.79
2018-04-22T09:41:29.690Z,101302.87
2018-04-22T09:42:34.174Z,101296.88
2018-04-22T09:43:39.749Z,101302.10
2018-04-22T09:44:45.642Z,101298.44
2018-04-22T09:45:50.724Z,101291.14
2018-04-22T09:46:56.102Z,101293.73
2018-04-22T09:48:00.748Z,101289.79
2018-04-22T09:49:04.965Z,101291.73
2018-04-22T09:50:09.725Z,101291.07
2018-04-22T09:51:14.084Z,101287.17
2018-04-22T09:52:19.200Z,101275.02
2018-04-22T09:53:26.943Z,101273.39
2018-04-22T09:54:31.115Z,101273.14
2018-04-22T09:55:36.116Z,101271.30
2018-04-22T09:56:41.652Z,101280.08
2018-04-22T09:57:47.017Z,101272.57
2018-04-22T09:58:56.094Z,101266.04
2018-04-22T10:00:00.235Z,101264.16
2018-04-22T10:01:05.005Z,101263.41
2018-04-22T10:02:15.312Z,101261.34
2018-04-22T10:03:19.602Z,101258.72
2018-04-22T10:04:27.769Z,101261.36
2018-04-22T10:05:36.804Z,101262.55
2018-04-22T10:06:41.545Z,101251.49
2018-04-22T10:07:46.350Z,101255.95
2018-04-22T10:08:51.472Z,101253.91
2018-04-22T10:09:57.698Z,101257.54
2018-04-22T10:11:03.235Z,101252.16
2018-04-22T10:12:07.986Z,101259.31
2018-04-22T10:13:13.061Z,101243.08
2018-04-22T10:14:20.511Z,101246.38
2018-04-22T10:15:24.983Z,101243.60
2018-04-22T10:16:29.698Z,101242.05
2018-04-22T10:17:33.841Z,101236.19
2018-04-22T10:18:38.599Z,101230.25
2018-04-22T10:19:42.751Z,101230.14
2018-04-22T10:20:48.377Z,101232.43
2018-04-22T10:21:54.157Z,101223.73
2018-04-22T10:22:58.349Z,101226.73
2018-04-22T10:24:02.569Z,101229.11
2018-04-22T10:25:07.704Z,101215.69
2018-04-22T10:26:12.953Z,101219.73
2018-04-22T10:27:17.128Z,101220.88
2018-04-22T10:28:21.371Z,101222.55
2018-04-22T10:29:25.579Z,101218.41
2018-04-22T10:30:29.803Z,101216.30
2018-04-22T10:31:34.499Z,101221.22
2018-04-22T10:32:41.684Z,101216.89
2018-04-22T10:33:49.778Z,101216.00
2018-04-22T10:34:56.843Z,101209.39
2018-04-22T10:36:01.098Z,101213.59
2018-04-22T10:37:05.373Z,101220.72
2018-04-22T10:38:09.523Z,101211.63
2018-04-22T10:39:13.770Z,101212.45
2018-04-22T10:40:17.945Z,101209.38
2018-04-22T10:41:22.189Z,101217.60
2018-04-22T10:42:27.041Z,101206.58
2018-04-22T10:43:31.196Z,101209.70
2018-04-22T10:44:36.695Z,101208.88
2018-04-22T10:45:44.433Z,101208.39
2018-04-22T10:46:49.675Z,101206.95
2018-04-22T10:47:54.578Z,101201.59
2018-04-22T10:48:58.781Z,101204.03
2018-04-22T10:50:02.982Z,101190.66
2018-04-22T10:51:07.123Z,101196.11
2018-04-22T10:52:11.601Z,101197.41
2018-04-22T10:53:15.775Z,101187.92
2018-04-22T10:54:20.289Z,101184.25
2018-04-22T10:55:24.440Z,101179.13
2018-04-22T10:56:28.577Z,101185.67
2018-04-22T10:57:33.200Z,101186.58
2018-04-22T10:58:37.933Z,101179.34
2018-04-22T10:59:42.127Z,101175.93
2018-04-22T11:00:48.134Z,101172.31
2018-04-22T11:01:53.664Z,101178.35
2018-04-22T11:02:59.345Z,101174.02
2018-04-22T11:04:03.820Z,101181.42
2018-04-22T11:05:08.228Z,101173.30
2018-04-22T11:06:13.150Z,101172.23
2018-04-22T11:07:17.988Z,101173.91
2018-04-22T11:08:22.183Z,101173.86
2018-04-22T11:09:26.303Z,101172.81
2018-04-22T11:10:30.937Z,101172.09
2018-04-22T11:11:35.640Z,101170.81
2018-04-22T11:12:39.813Z,101170.33
2018-04-22T11:13:44.273Z,101170.28
2018-04-22T11:14:48.919Z,101174.05
2018-04-22T11:15:53.723Z,101171.47
2018-04-22T11:16:58.467Z,101167.69
2018-04-22T11:18:03.174Z,101156.27
2018-04-22T11:19:07.369Z,101159.61
2018-04-22T11:20:11.543Z,101165.05
2018-04-22T11:21:15.733Z,101163.89
2018-04-22T11:22:20.029Z,101162.92
2018-04-22T11:23:25.264Z,101164.59
2018-04-22T11:24:29.459Z,101155.55
2018-04-22T11:25:34.236Z,101154.15
2018-04-22T11:26:38.397Z,101144.61
2018-04-22T11:27:43.948Z,101146.75
2018-04-22T11:28:48.111Z,101141.62
2018-04-22T11:29:52.333Z,101146.83
2018-04-22T11:31:07.434Z,101142.23
2018-04-22T11:32:11.871Z,101150.05
2018-04-22T11:33:16.991Z,101146.95
2018-04-22T11:34:21.956Z,101142.25
2018-04-22T11:35:27.139Z,101133.16
2018-04-22T11:36:33.064Z,101136.21
2018-04-22T11:37:37.685Z,101129.03
2018-04-22T11:38:41.973Z,101123.20
2018-04-22T11:39:47.346Z,101134.21
2018-04-22T11:40:52.790Z,101131.05
2018-04-22T11:41:57.022Z,101127.22
2018-04-22T11:43:01.817Z,101126.29
2018-04-22T11:44:05.975Z,101128.02
2018-04-22T11:45:13.623Z,101125.02
2018-04-22T11:46:36.478Z,101108.67
2018-04-22T11:47:40.663Z,101102.70
2018-04-22T11:48:45.390Z,101100.90
2018-04-22T11:49:49.653Z,101107.83
2018-04-22T11:50:54.509Z,101103.61
2018-04-22T11:52:00.096Z,101102.97
2018-04-22T11:53:04.344Z,101099.73
2018-04-22T11:54:08.525Z,101097.86
2018-04-22T11:55:13.299Z,101093.91
2018-04-22T11:56:17.513Z,101099.97
2018-04-22T11:57:22.185Z,101097.80
2018-04-22T11:58:28.082Z,101091.64
2018-04-22T11:59:32.484Z,101105.84
2018-04-22T12:00:37.099Z,101093.28
2018-04-22T12:01:41.649Z,101095.17
2018-04-22T12:02:48.131Z,101094.25
2018-04-22T12:03:52.508Z,101096.20
2018-04-22T12:04:57.928Z,101098.41
2018-04-22T12:06:05.827Z,101084.08
2018-04-22T12:07:10.237Z,101080.47
2018-04-22T12:08:14.960Z,101085.48
2018-04-22T12:09:19.239Z,101085.89
2018-04-22T12:10:23.751Z,101083.94
2018-04-22T12:11:29.761Z,101077.98
2018-04-22T12:12:34.160Z,101083.02
2018-04-22T12:13:39.387Z,101085.09
2018-04-22T12:14:43.720Z,101083.98
2018-04-22T12:15:48.229Z,101079.62
2018-04-22T12:16:56.192Z,101067.63
2018-04-22T12:18:07.863Z,101077.27
2018-04-22T12:19:16.341Z,101075.18
2018-04-22T12:20:20.488Z,101077.66
2018-04-22T12:21:25.263Z,101075.09
2018-04-22T12:22:29.946Z,101077.98
2018-04-22T12:23:34.498Z,101075.46
2018-04-22T12:24:39.152Z,101076.12
2018-04-22T12:25:52.011Z,101069.48
2018-04-22T12:27:04.700Z,101063.81
2018-04-22T12:28:09.349Z,101062.33
2018-04-22T12:29:14.937Z,101068.84
2018-04-22T12:30:20.253Z,101058.62
2018-04-22T12:31:27.009Z,101053.87
2018-04-22T12:32:31.635Z,101040.56
2018-04-22T12:33:36.154Z,101050.78
2018-04-22T12:34:40.333Z,101051.23
2018-04-22T12:35:44.688Z,101045.54
2018-04-22T12:36:49.649Z,101046.65
2018-04-22T12:37:53.816Z,101049.42